sensor_id;sensor_type;location;lat;lon;timestamp;P1;durP1;ratioP1;P2;durP2;ratioP2
5898;SDS011;2975;50.956;6.962;2022-08-19T00:00:33;10.00;;;7.63;;
5898;SDS011;2975;50.956;6.962;2022-08-19T00:03:03;12.27;;;7.47;;
5898;SDS011;2975;50.956;6.962;2022-08-19T00:05:29;10.07;;;7.37;;
5898;SDS011;2975;50.956;6.962;2022-08-19T00:07:55;8.00;;;7.27;;
5898;SDS011;2975;50.956;6.962;2022-08-19T00:10:21;9.50;;;7.53;;
5898;SDS011;2975;50.956;6.962;2022-08-19T00:12:46;9.97;;;7.53;;
5898;SDS011;2975;50.956;6.962;2022-08-19T00:15:13;9.87;;;7.67;;
5898;SDS011;2975;50.956;6.962;2022-08-19T00:17:42;8.17;;;6.80;;
5898;SDS011;2975;50.956;6.962;2022-08-19T00:20:09;10.57;;;7.73;;
5898;SDS011;2975;50.956;6.962;2022-08-19T00:22:37;8.33;;;7.53;;
5898;SDS011;2975;50.956;6.962;2022-08-19T00:25:03;8.53;;;7.67;;
5898;SDS011;2975;50.956;6.962;2022-08-19T00:27:30;10.03;;;7.93;;
5898;SDS011;2975;50.956;6.962;2022-08-19T00:29:56;11.03;;;7.40;;
5898;SDS011;2975;50.956;6.962;2022-08-19T00:32:21;11.97;;;7.43;;
5898;SDS011;2975;50.956;6.962;2022-08-19T00:34:47;10.27;;;7.53;;
5898;SDS011;2975;50.956;6.962;2022-08-19T00:37:13;9.67;;;8.17;;
5898;SDS011;2975;50.956;6.962;2022-08-19T00:39:38;9.67;;;8.10;;
5898;SDS011;2975;50.956;6.962;2022-08-19T00:42:04;8.77;;;7.23;;
5898;SDS011;2975;50.956;6.962;2022-08-19T00:44:31;10.53;;;8.00;;
5898;SDS011;2975;50.956;6.962;2022-08-19T00:46:57;13.10;;;7.53;;
5898;SDS011;2975;50.956;6.962;2022-08-19T00:49:37;8.60;;;7.53;;
5898;SDS011;2975;50.956;6.962;2022-08-19T00:52:09;11.13;;;8.90;;
5898;SDS011;2975;50.956;6.962;2022-08-19T00:54:38;9.40;;;8.20;;
5898;SDS011;2975;50.956;6.962;2022-08-19T00:57:08;9.40;;;8.03;;
5898;SDS011;2975;50.956;6.962;2022-08-19T00:59:38;12.63;;;8.67;;
5898;SDS011;2975;50.956;6.962;2022-08-19T01:02:05;12.73;;;9.57;;
5898;SDS011;2975;50.956;6.962;2022-08-19T01:04:31;8.90;;;8.00;;
5898;SDS011;2975;50.956;6.962;2022-08-19T01:06:57;11.30;;;8.80;;
5898;SDS011;2975;50.956;6.962;2022-08-19T01:09:23;11.80;;;9.13;;
5898;SDS011;2975;50.956;6.962;2022-08-19T01:11:49;11.87;;;9.53;;
5898;SDS011;2975;50.956;6.962;2022-08-19T01:14:15;12.80;;;9.00;;
5898;SDS011;2975;50.956;6.962;2022-08-19T01:16:42;9.07;;;8.17;;
5898;SDS011;2975;50.956;6.962;2022-08-19T01:19:18;11.97;;;8.83;;
5898;SDS011;2975;50.956;6.962;2022-08-19T01:21:48;11.37;;;9.30;;
5898;SDS011;2975;50.956;6.962;2022-08-19T01:24:20;11.97;;;9.17;;
5898;SDS011;2975;50.956;6.962;2022-08-19T01:26:46;10.17;;;9.10;;
5898;SDS011;2975;50.956;6.962;2022-08-19T01:29:12;11.00;;;9.77;;
5898;SDS011;2975;50.956;6.962;2022-08-19T01:31:38;10.17;;;9.07;;
5898;SDS011;2975;50.956;6.962;2022-08-19T01:34:04;11.37;;;9.40;;
5898;SDS011;2975;50.956;6.962;2022-08-19T01:36:36;14.03;;;9.47;;
5898;SDS011;2975;50.956;6.962;2022-08-19T01:39:08;11.37;;;9.07;;
5898;SDS011;2975;50.956;6.962;2022-08-19T01:41:35;11.63;;;9.20;;
5898;SDS011;2975;50.956;6.962;2022-08-19T01:44:01;11.07;;;9.97;;
5898;SDS011;2975;50.956;6.962;2022-08-19T01:46:29;13.80;;;10.43;;
5898;SDS011;2975;50.956;6.962;2022-08-19T01:48:55;15.00;;;9.87;;
5898;SDS011;2975;50.956;6.962;2022-08-19T01:51:21;11.50;;;10.33;;
5898;SDS011;2975;50.956;6.962;2022-08-19T01:53:47;14.73;;;10.60;;
5898;SDS011;2975;50.956;6.962;2022-08-19T01:56:14;12.20;;;10.80;;
5898;SDS011;2975;50.956;6.962;2022-08-19T01:58:48;15.13;;;11.20;;
5898;SDS011;2975;50.956;6.962;2022-08-19T02:01:17;13.07;;;11.07;;
5898;SDS011;2975;50.956;6.962;2022-08-19T02:03:43;14.07;;;10.80;;
5898;SDS011;2975;50.956;6.962;2022-08-19T02:06:08;14.17;;;10.67;;
5898;SDS011;2975;50.956;6.962;2022-08-19T02:08:35;13.20;;;10.87;;
5898;SDS011;2975;50.956;6.962;2022-08-19T02:11:02;14.93;;;10.87;;
5898;SDS011;2975;50.956;6.962;2022-08-19T02:13:29;12.90;;;10.27;;
5898;SDS011;2975;50.956;6.962;2022-08-19T02:15:55;14.33;;;10.90;;
5898;SDS011;2975;50.956;6.962;2022-08-19T02:18:21;13.43;;;11.50;;
5898;SDS011;2975;50.956;6.962;2022-08-19T02:20:46;11.20;;;10.10;;
5898;SDS011;2975;50.956;6.962;2022-08-19T02:23:13;13.10;;;10.63;;
5898;SDS011;2975;50.956;6.962;2022-08-19T02:25:40;14.10;;;10.53;;
5898;SDS011;2975;50.956;6.962;2022-08-19T02:28:06;14.90;;;11.57;;
5898;SDS011;2975;50.956;6.962;2022-08-19T02:30:32;13.93;;;11.67;;
5898;SDS011;2975;50.956;6.962;2022-08-19T02:32:58;11.90;;;10.63;;
5898;SDS011;2975;50.956;6.962;2022-08-19T02:35:24;17.77;;;12.13;;
5898;SDS011;2975;50.956;6.962;2022-08-19T02:37:50;16.03;;;12.10;;
5898;SDS011;2975;50.956;6.962;2022-08-19T02:40:34;14.70;;;12.00;;
5898;SDS011;2975;50.956;6.962;2022-08-19T02:43:04;12.57;;;11.27;;
5898;SDS011;2975;50.956;6.962;2022-08-19T02:45:36;17.10;;;12.77;;
5898;SDS011;2975;50.956;6.962;2022-08-19T02:48:04;18.40;;;11.87;;
5898;SDS011;2975;50.956;6.962;2022-08-19T02:50:30;13.87;;;11.43;;
5898;SDS011;2975;50.956;6.962;2022-08-19T02:52:56;15.60;;;12.40;;
5898;SDS011;2975;50.956;6.962;2022-08-19T02:55:22;17.70;;;13.00;;
5898;SDS011;2975;50.956;6.962;2022-08-19T02:57:48;24.40;;;12.63;;
5898;SDS011;2975;50.956;6.962;2022-08-19T03:00:13;15.97;;;12.70;;
5898;SDS011;2975;50.956;6.962;2022-08-19T03:02:41;14.60;;;12.23;;
5898;SDS011;2975;50.956;6.962;2022-08-19T03:05:08;17.07;;;13.53;;
5898;SDS011;2975;50.956;6.962;2022-08-19T03:07:35;18.17;;;13.70;;
5898;SDS011;2975;50.956;6.962;2022-08-19T03:10:01;17.50;;;12.47;;
5898;SDS011;2975;50.956;6.962;2022-08-19T03:12:28;15.37;;;12.27;;
5898;SDS011;2975;50.956;6.962;2022-08-19T03:14:53;17.97;;;11.93;;
5898;SDS011;2975;50.956;6.962;2022-08-19T03:17:19;19.60;;;14.03;;
5898;SDS011;2975;50.956;6.962;2022-08-19T03:19:45;15.03;;;12.97;;
5898;SDS011;2975;50.956;6.962;2022-08-19T03:22:10;15.40;;;12.63;;
5898;SDS011;2975;50.956;6.962;2022-08-19T03:24:37;16.23;;;13.80;;
5898;SDS011;2975;50.956;6.962;2022-08-19T03:27:04;17.37;;;12.83;;
5898;SDS011;2975;50.956;6.962;2022-08-19T03:29:30;17.57;;;13.63;;
5898;SDS011;2975;50.956;6.962;2022-08-19T03:31:57;21.23;;;14.67;;
5898;SDS011;2975;50.956;6.962;2022-08-19T03:34:29;16.23;;;14.50;;
5898;SDS011;2975;50.956;6.962;2022-08-19T03:36:57;22.90;;;13.77;;
5898;SDS011;2975;50.956;6.962;2022-08-19T03:39:25;20.73;;;15.07;;
5898;SDS011;2975;50.956;6.962;2022-08-19T03:41:51;20.23;;;14.40;;
5898;SDS011;2975;50.956;6.962;2022-08-19T03:44:19;20.43;;;14.17;;
5898;SDS011;2975;50.956;6.962;2022-08-19T03:46:47;19.07;;;14.07;;
5898;SDS011;2975;50.956;6.962;2022-08-19T03:49:15;17.67;;;14.27;;
5898;SDS011;2975;50.956;6.962;2022-08-19T03:51:42;20.63;;;15.93;;
5898;SDS011;2975;50.956;6.962;2022-08-19T03:54:10;19.70;;;14.37;;
5898;SDS011;2975;50.956;6.962;2022-08-19T03:56:38;19.27;;;15.67;;
5898;SDS011;2975;50.956;6.962;2022-08-19T03:59:06;18.50;;;14.73;;
5898;SDS011;2975;50.956;6.962;2022-08-19T04:01:35;22.03;;;16.73;;
5898;SDS011;2975;50.956;6.962;2022-08-19T04:04:02;26.43;;;17.30;;
5898;SDS011;2975;50.956;6.962;2022-08-19T04:06:29;24.87;;;17.47;;
5898;SDS011;2975;50.956;6.962;2022-08-19T04:08:58;27.57;;;18.63;;
5898;SDS011;2975;50.956;6.962;2022-08-19T04:11:26;30.93;;;18.10;;
5898;SDS011;2975;50.956;6.962;2022-08-19T04:13:53;24.27;;;18.03;;
5898;SDS011;2975;50.956;6.962;2022-08-19T04:16:21;23.13;;;18.23;;
5898;SDS011;2975;50.956;6.962;2022-08-19T04:18:49;24.10;;;17.53;;
5898;SDS011;2975;50.956;6.962;2022-08-19T04:21:16;30.00;;;21.47;;
5898;SDS011;2975;50.956;6.962;2022-08-19T04:23:43;26.87;;;20.30;;
5898;SDS011;2975;50.956;6.962;2022-08-19T04:26:17;22.53;;;18.90;;
5898;SDS011;2975;50.956;6.962;2022-08-19T04:28:44;28.43;;;22.37;;
5898;SDS011;2975;50.956;6.962;2022-08-19T04:31:14;29.87;;;22.20;;
5898;SDS011;2975;50.956;6.962;2022-08-19T04:33:42;29.97;;;23.77;;
5898;SDS011;2975;50.956;6.962;2022-08-19T04:36:08;31.17;;;24.40;;
5898;SDS011;2975;50.956;6.962;2022-08-19T04:38:41;32.10;;;23.53;;
5898;SDS011;2975;50.956;6.962;2022-08-19T04:41:06;32.20;;;25.53;;
5898;SDS011;2975;50.956;6.962;2022-08-19T04:43:52;34.23;;;24.37;;
5898;SDS011;2975;50.956;6.962;2022-08-19T04:46:18;36.93;;;26.73;;
5898;SDS011;2975;50.956;6.962;2022-08-19T04:48:44;33.67;;;25.97;;
5898;SDS011;2975;50.956;6.962;2022-08-19T04:51:11;34.87;;;27.77;;
5898;SDS011;2975;50.956;6.962;2022-08-19T04:53:39;38.40;;;28.10;;
5898;SDS011;2975;50.956;6.962;2022-08-19T04:56:10;35.53;;;27.67;;
5898;SDS011;2975;50.956;6.962;2022-08-19T04:58:37;33.30;;;26.47;;
5898;SDS011;2975;50.956;6.962;2022-08-19T05:01:06;35.50;;;27.30;;
5898;SDS011;2975;50.956;6.962;2022-08-19T05:03:35;34.27;;;27.67;;
5898;SDS011;2975;50.956;6.962;2022-08-19T05:06:08;35.40;;;26.93;;
5898;SDS011;2975;50.956;6.962;2022-08-19T05:08:37;34.63;;;26.73;;
5898;SDS011;2975;50.956;6.962;2022-08-19T05:11:18;44.40;;;32.13;;
5898;SDS011;2975;50.956;6.962;2022-08-19T05:13:47;43.53;;;31.73;;
5898;SDS011;2975;50.956;6.962;2022-08-19T05:16:14;37.67;;;29.70;;
5898;SDS011;2975;50.956;6.962;2022-08-19T05:18:42;41.73;;;29.87;;
5898;SDS011;2975;50.956;6.962;2022-08-19T05:21:27;39.17;;;29.43;;
5898;SDS011;2975;50.956;6.962;2022-08-19T05:24:13;35.93;;;29.63;;
5898;SDS011;2975;50.956;6.962;2022-08-19T05:26:40;46.73;;;30.97;;
5898;SDS011;2975;50.956;6.962;2022-08-19T05:29:07;38.07;;;28.67;;
5898;SDS011;2975;50.956;6.962;2022-08-19T05:31:34;42.77;;;29.90;;
5898;SDS011;2975;50.956;6.962;2022-08-19T05:34:00;39.70;;;30.93;;
5898;SDS011;2975;50.956;6.962;2022-08-19T05:36:28;40.67;;;31.13;;
5898;SDS011;2975;50.956;6.962;2022-08-19T05:38:59;36.93;;;30.87;;
5898;SDS011;2975;50.956;6.962;2022-08-19T05:41:24;42.63;;;32.77;;
5898;SDS011;2975;50.956;6.962;2022-08-19T05:43:54;39.10;;;32.20;;
5898;SDS011;2975;50.956;6.962;2022-08-19T05:46:21;44.73;;;32.03;;
5898;SDS011;2975;50.956;6.962;2022-08-19T05:48:47;42.77;;;32.63;;
5898;SDS011;2975;50.956;6.962;2022-08-19T05:51:13;40.80;;;31.97;;
5898;SDS011;2975;50.956;6.962;2022-08-19T05:53:41;45.70;;;31.33;;
5898;SDS011;2975;50.956;6.962;2022-08-19T05:56:08;41.33;;;31.23;;
5898;SDS011;2975;50.956;6.962;2022-08-19T05:58:36;35.83;;;29.30;;
5898;SDS011;2975;50.956;6.962;2022-08-19T06:01:13;36.87;;;29.67;;
5898;SDS011;2975;50.956;6.962;2022-08-19T06:03:41;36.00;;;30.70;;
5898;SDS011;2975;50.956;6.962;2022-08-19T06:06:09;36.97;;;27.60;;
5898;SDS011;2975;50.956;6.962;2022-08-19T06:08:36;36.50;;;28.27;;
5898;SDS011;2975;50.956;6.962;2022-08-19T06:11:16;33.57;;;28.13;;
5898;SDS011;2975;50.956;6.962;2022-08-19T06:13:45;34.60;;;27.13;;
5898;SDS011;2975;50.956;6.962;2022-08-19T06:16:15;31.47;;;27.00;;
5898;SDS011;2975;50.956;6.962;2022-08-19T06:18:54;34.03;;;25.70;;
5898;SDS011;2975;50.956;6.962;2022-08-19T06:21:23;34.67;;;26.07;;
5898;SDS011;2975;50.956;6.962;2022-08-19T06:23:50;36.17;;;27.17;;
5898;SDS011;2975;50.956;6.962;2022-08-19T06:26:17;35.28;;;27.00;;
5898;SDS011;2975;50.956;6.962;2022-08-19T06:28:44;31.73;;;25.35;;
5898;SDS011;2975;50.956;6.962;2022-08-19T06:31:15;32.87;;;25.83;;
5898;SDS011;2975;50.956;6.962;2022-08-19T06:33:42;32.77;;;26.43;;
5898;SDS011;2975;50.956;6.962;2022-08-19T06:36:20;33.43;;;25.93;;
5898;SDS011;2975;50.956;6.962;2022-08-19T06:38:47;31.80;;;26.00;;
5898;SDS011;2975;50.956;6.962;2022-08-19T06:41:12;35.67;;;28.33;;
5898;SDS011;2975;50.956;6.962;2022-08-19T06:43:38;35.40;;;26.87;;
5898;SDS011;2975;50.956;6.962;2022-08-19T06:46:09;33.80;;;27.63;;
5898;SDS011;2975;50.956;6.962;2022-08-19T06:48:36;42.97;;;29.03;;
5898;SDS011;2975;50.956;6.962;2022-08-19T06:51:02;36.33;;;27.57;;
5898;SDS011;2975;50.956;6.962;2022-08-19T06:53:30;34.50;;;27.50;;
5898;SDS011;2975;50.956;6.962;2022-08-19T06:55:56;29.67;;;24.67;;
5898;SDS011;2975;50.956;6.962;2022-08-19T06:58:25;34.08;;;25.30;;
5898;SDS011;2975;50.956;6.962;2022-08-19T07:00:51;32.33;;;25.90;;
5898;SDS011;2975;50.956;6.962;2022-08-19T07:03:16;33.47;;;25.88;;
5898;SDS011;2975;50.956;6.962;2022-08-19T07:05:42;33.30;;;26.90;;
5898;SDS011;2975;50.956;6.962;2022-08-19T07:08:08;29.05;;;24.30;;
5898;SDS011;2975;50.956;6.962;2022-08-19T07:10:34;31.98;;;24.50;;
5898;SDS011;2975;50.956;6.962;2022-08-19T07:13:01;32.25;;;22.67;;
5898;SDS011;2975;50.956;6.962;2022-08-19T07:15:28;27.63;;;23.08;;
5898;SDS011;2975;50.956;6.962;2022-08-19T07:17:54;27.83;;;22.70;;
5898;SDS011;2975;50.956;6.962;2022-08-19T07:20:20;28.42;;;22.67;;
5898;SDS011;2975;50.956;6.962;2022-08-19T07:22:45;30.08;;;24.80;;
5898;SDS011;2975;50.956;6.962;2022-08-19T07:25:11;30.65;;;23.08;;
5898;SDS011;2975;50.956;6.962;2022-08-19T07:27:38;32.15;;;22.33;;
5898;SDS011;2975;50.956;6.962;2022-08-19T07:30:04;27.95;;;22.40;;
5898;SDS011;2975;50.956;6.962;2022-08-19T07:32:30;32.33;;;23.80;;
5898;SDS011;2975;50.956;6.962;2022-08-19T07:34:56;34.35;;;23.50;;
5898;SDS011;2975;50.956;6.962;2022-08-19T07:37:22;29.55;;;21.35;;
5898;SDS011;2975;50.956;6.962;2022-08-19T07:39:51;34.20;;;24.38;;
5898;SDS011;2975;50.956;6.962;2022-08-19T07:42:17;29.92;;;23.55;;
5898;SDS011;2975;50.956;6.962;2022-08-19T07:44:42;31.02;;;25.00;;
5898;SDS011;2975;50.956;6.962;2022-08-19T07:47:08;31.52;;;23.77;;
5898;SDS011;2975;50.956;6.962;2022-08-19T07:49:34;36.67;;;25.13;;
5898;SDS011;2975;50.956;6.962;2022-08-19T07:52:01;34.00;;;24.55;;
5898;SDS011;2975;50.956;6.962;2022-08-19T07:54:31;32.72;;;25.63;;
5898;SDS011;2975;50.956;6.962;2022-08-19T07:56:59;32.45;;;25.70;;
5898;SDS011;2975;50.956;6.962;2022-08-19T07:59:25;30.67;;;24.85;;
5898;SDS011;2975;50.956;6.962;2022-08-19T08:01:51;36.10;;;27.33;;
5898;SDS011;2975;50.956;6.962;2022-08-19T08:04:17;37.65;;;26.30;;
5898;SDS011;2975;50.956;6.962;2022-08-19T08:07:02;38.97;;;24.77;;
5898;SDS011;2975;50.956;6.962;2022-08-19T08:09:47;32.88;;;24.35;;
5898;SDS011;2975;50.956;6.962;2022-08-19T08:12:15;37.00;;;26.30;;
5898;SDS011;2975;50.956;6.962;2022-08-19T08:14:50;41.92;;;30.02;;
5898;SDS011;2975;50.956;6.962;2022-08-19T08:17:19;38.58;;;27.38;;
5898;SDS011;2975;50.956;6.962;2022-08-19T08:19:47;41.70;;;29.57;;
5898;SDS011;2975;50.956;6.962;2022-08-19T08:22:15;42.95;;;31.30;;
5898;SDS011;2975;50.956;6.962;2022-08-19T08:25:05;43.40;;;32.50;;
5898;SDS011;2975;50.956;6.962;2022-08-19T08:27:35;46.15;;;33.10;;
5898;SDS011;2975;50.956;6.962;2022-08-19T08:30:02;49.20;;;35.60;;
5898;SDS011;2975;50.956;6.962;2022-08-19T08:32:31;49.13;;;33.40;;
5898;SDS011;2975;50.956;6.962;2022-08-19T08:34:57;50.43;;;33.50;;
5898;SDS011;2975;50.956;6.962;2022-08-19T08:37:23;47.13;;;32.45;;
5898;SDS011;2975;50.956;6.962;2022-08-19T08:39:49;44.70;;;30.98;;
5898;SDS011;2975;50.956;6.962;2022-08-19T08:42:27;39.42;;;28.83;;
5898;SDS011;2975;50.956;6.962;2022-08-19T08:45:00;44.47;;;28.35;;
5898;SDS011;2975;50.956;6.962;2022-08-19T08:47:40;45.22;;;31.02;;
5898;SDS011;2975;50.956;6.962;2022-08-19T08:53:07;42.95;;;31.08;;
5898;SDS011;2975;50.956;6.962;2022-08-19T08:55:33;46.30;;;29.75;;
5898;SDS011;2975;50.956;6.962;2022-08-19T08:58:04;43.15;;;30.45;;
5898;SDS011;2975;50.956;6.962;2022-08-19T09:00:46;43.25;;;30.88;;
5898;SDS011;2975;50.956;6.962;2022-08-19T09:03:16;49.13;;;31.88;;
5898;SDS011;2975;50.956;6.962;2022-08-19T09:11:13;47.60;;;31.77;;
5898;SDS011;2975;50.956;6.962;2022-08-19T09:13:48;32.45;;;24.25;;
5898;SDS011;2975;50.956;6.962;2022-08-19T09:16:43;37.95;;;26.48;;
5898;SDS011;2975;50.956;6.962;2022-08-19T09:19:09;32.65;;;24.33;;
5898;SDS011;2975;50.956;6.962;2022-08-19T09:21:35;36.17;;;24.60;;
5898;SDS011;2975;50.956;6.962;2022-08-19T09:24:02;34.53;;;25.13;;
5898;SDS011;2975;50.956;6.962;2022-08-19T09:26:29;29.35;;;22.13;;
5898;SDS011;2975;50.956;6.962;2022-08-19T09:28:57;29.38;;;21.83;;
5898;SDS011;2975;50.956;6.962;2022-08-19T09:31:25;30.60;;;20.90;;
5898;SDS011;2975;50.956;6.962;2022-08-19T09:33:52;27.20;;;19.25;;
5898;SDS011;2975;50.956;6.962;2022-08-19T09:36:22;28.02;;;20.70;;
5898;SDS011;2975;50.956;6.962;2022-08-19T09:38:49;31.90;;;21.45;;
5898;SDS011;2975;50.956;6.962;2022-08-19T09:41:20;28.63;;;22.17;;
5898;SDS011;2975;50.956;6.962;2022-08-19T09:43:48;23.27;;;18.88;;
5898;SDS011;2975;50.956;6.962;2022-08-19T09:46:17;26.88;;;19.88;;
5898;SDS011;2975;50.956;6.962;2022-08-19T09:48:44;26.08;;;19.25;;
5898;SDS011;2975;50.956;6.962;2022-08-19T09:51:12;19.42;;;14.57;;
5898;SDS011;2975;50.956;6.962;2022-08-19T09:53:41;18.35;;;14.75;;
5898;SDS011;2975;50.956;6.962;2022-08-19T09:56:09;16.55;;;13.32;;
5898;SDS011;2975;50.956;6.962;2022-08-19T09:58:35;27.63;;;17.23;;
5898;SDS011;2975;50.956;6.962;2022-08-19T10:01:02;22.77;;;16.50;;
5898;SDS011;2975;50.956;6.962;2022-08-19T10:03:30;17.92;;;14.73;;
5898;SDS011;2975;50.956;6.962;2022-08-19T10:05:58;16.77;;;13.95;;
5898;SDS011;2975;50.956;6.962;2022-08-19T10:08:29;18.05;;;13.93;;
5898;SDS011;2975;50.956;6.962;2022-08-19T10:10:58;16.90;;;13.63;;
5898;SDS011;2975;50.956;6.962;2022-08-19T10:13:25;17.92;;;14.55;;
5898;SDS011;2975;50.956;6.962;2022-08-19T10:15:53;20.02;;;15.23;;
5898;SDS011;2975;50.956;6.962;2022-08-19T10:18:22;20.17;;;13.98;;
5898;SDS011;2975;50.956;6.962;2022-08-19T10:20:50;20.40;;;14.57;;
5898;SDS011;2975;50.956;6.962;2022-08-19T10:23:17;18.10;;;14.05;;
5898;SDS011;2975;50.956;6.962;2022-08-19T10:25:44;11.10;;;9.40;;
5898;SDS011;2975;50.956;6.962;2022-08-19T10:28:10;20.00;;;15.32;;
5898;SDS011;2975;50.956;6.962;2022-08-19T10:30:37;17.60;;;13.65;;
5898;SDS011;2975;50.956;6.962;2022-08-19T10:33:04;13.90;;;12.25;;
5898;SDS011;2975;50.956;6.962;2022-08-19T10:35:31;18.08;;;13.32;;
5898;SDS011;2975;50.956;6.962;2022-08-19T10:37:57;11.75;;;10.05;;
5898;SDS011;2975;50.956;6.962;2022-08-19T10:40:28;21.00;;;13.45;;
5898;SDS011;2975;50.956;6.962;2022-08-19T10:42:54;17.58;;;14.75;;
5898;SDS011;2975;50.956;6.962;2022-08-19T10:45:23;16.95;;;13.80;;
5898;SDS011;2975;50.956;6.962;2022-08-19T10:47:51;22.90;;;17.17;;
5898;SDS011;2975;50.956;6.962;2022-08-19T10:50:18;24.05;;;15.85;;
5898;SDS011;2975;50.956;6.962;2022-08-19T10:53:06;19.17;;;14.75;;
5898;SDS011;2975;50.956;6.962;2022-08-19T10:55:35;16.85;;;14.75;;
5898;SDS011;2975;50.956;6.962;2022-08-19T10:58:20;20.85;;;17.98;;
5898;SDS011;2975;50.956;6.962;2022-08-19T11:00:55;21.00;;;17.92;;
5898;SDS011;2975;50.956;6.962;2022-08-19T11:03:23;21.27;;;15.70;;
5898;SDS011;2975;50.956;6.962;2022-08-19T11:05:59;21.58;;;16.75;;
5898;SDS011;2975;50.956;6.962;2022-08-19T11:08:26;21.42;;;16.45;;
5898;SDS011;2975;50.956;6.962;2022-08-19T11:10:52;19.02;;;16.88;;
5898;SDS011;2975;50.956;6.962;2022-08-19T11:13:21;16.15;;;14.40;;
5898;SDS011;2975;50.956;6.962;2022-08-19T11:15:55;20.13;;;14.82;;
5898;SDS011;2975;50.956;6.962;2022-08-19T11:18:22;18.70;;;13.95;;
5898;SDS011;2975;50.956;6.962;2022-08-19T11:20:47;15.80;;;14.13;;
5898;SDS011;2975;50.956;6.962;2022-08-19T11:23:14;17.05;;;13.32;;
5898;SDS011;2975;50.956;6.962;2022-08-19T11:25:39;14.63;;;13.13;;
5898;SDS011;2975;50.956;6.962;2022-08-19T11:28:05;20.45;;;14.43;;
5898;SDS011;2975;50.956;6.962;2022-08-19T11:30:30;15.32;;;11.98;;
5898;SDS011;2975;50.956;6.962;2022-08-19T11:32:58;14.88;;;12.25;;
5898;SDS011;2975;50.956;6.962;2022-08-19T11:35:25;14.02;;;10.93;;
5898;SDS011;2975;50.956;6.962;2022-08-19T11:37:51;11.25;;;9.85;;
5898;SDS011;2975;50.956;6.962;2022-08-19T11:40:17;13.30;;;11.45;;
5898;SDS011;2975;50.956;6.962;2022-08-19T11:42:42;14.07;;;12.48;;
5898;SDS011;2975;50.956;6.962;2022-08-19T11:45:21;16.17;;;12.90;;
5898;SDS011;2975;50.956;6.962;2022-08-19T11:47:48;11.55;;;10.35;;
5898;SDS011;2975;50.956;6.962;2022-08-19T11:50:14;13.02;;;10.70;;
5898;SDS011;2975;50.956;6.962;2022-08-19T11:52:41;14.07;;;10.75;;
5898;SDS011;2975;50.956;6.962;2022-08-19T11:55:07;11.10;;;9.30;;
5898;SDS011;2975;50.956;6.962;2022-08-19T11:57:33;16.48;;;9.68;;
5898;SDS011;2975;50.956;6.962;2022-08-19T11:59:59;13.43;;;11.48;;
5898;SDS011;2975;50.956;6.962;2022-08-19T12:02:25;14.02;;;9.98;;
5898;SDS011;2975;50.956;6.962;2022-08-19T12:04:50;16.92;;;9.00;;
5898;SDS011;2975;50.956;6.962;2022-08-19T12:07:16;11.45;;;10.25;;
5898;SDS011;2975;50.956;6.962;2022-08-19T12:09:42;11.43;;;9.73;;
5898;SDS011;2975;50.956;6.962;2022-08-19T12:12:07;12.55;;;8.95;;
5898;SDS011;2975;50.956;6.962;2022-08-19T12:14:33;10.38;;;9.07;;
5898;SDS011;2975;50.956;6.962;2022-08-19T12:17:00;10.30;;;8.02;;
5898;SDS011;2975;50.956;6.962;2022-08-19T12:19:27;11.80;;;8.23;;
5898;SDS011;2975;50.956;6.962;2022-08-19T12:21:53;11.05;;;9.95;;
5898;SDS011;2975;50.956;6.962;2022-08-19T12:24:26;10.85;;;9.52;;
5898;SDS011;2975;50.956;6.962;2022-08-19T12:26:52;12.18;;;9.20;;
5898;SDS011;2975;50.956;6.962;2022-08-19T12:29:18;9.13;;;8.20;;
5898;SDS011;2975;50.956;6.962;2022-08-19T12:31:44;8.63;;;7.75;;
5898;SDS011;2975;50.956;6.962;2022-08-19T12:34:09;12.35;;;7.88;;
5898;SDS011;2975;50.956;6.962;2022-08-19T12:36:36;8.55;;;7.38;;
5898;SDS011;2975;50.956;6.962;2022-08-19T12:39:02;10.32;;;8.35;;
5898;SDS011;2975;50.956;6.962;2022-08-19T12:41:29;11.40;;;9.45;;
5898;SDS011;2975;50.956;6.962;2022-08-19T12:43:54;8.50;;;6.55;;
5898;SDS011;2975;50.956;6.962;2022-08-19T12:46:20;10.77;;;7.72;;
5898;SDS011;2975;50.956;6.962;2022-08-19T12:48:46;9.82;;;8.32;;
5898;SDS011;2975;50.956;6.962;2022-08-19T12:51:13;10.80;;;7.80;;
5898;SDS011;2975;50.956;6.962;2022-08-19T12:53:41;9.65;;;7.70;;
5898;SDS011;2975;50.956;6.962;2022-08-19T12:56:07;11.18;;;8.18;;
5898;SDS011;2975;50.956;6.962;2022-08-19T12:58:34;10.43;;;8.77;;
5898;SDS011;2975;50.956;6.962;2022-08-19T13:01:05;9.25;;;7.47;;
5898;SDS011;2975;50.956;6.962;2022-08-19T13:03:33;10.88;;;8.10;;
5898;SDS011;2975;50.956;6.962;2022-08-19T13:05:59;9.85;;;7.80;;
5898;SDS011;2975;50.956;6.962;2022-08-19T13:08:24;12.65;;;8.68;;
5898;SDS011;2975;50.956;6.962;2022-08-19T13:10:50;13.00;;;8.93;;
5898;SDS011;2975;50.956;6.962;2022-08-19T13:13:15;10.55;;;8.73;;
5898;SDS011;2975;50.956;6.962;2022-08-19T13:15:41;11.48;;;7.95;;
5898;SDS011;2975;50.956;6.962;2022-08-19T13:18:10;15.38;;;8.60;;
5898;SDS011;2975;50.956;6.962;2022-08-19T13:20:37;18.02;;;8.82;;
5898;SDS011;2975;50.956;6.962;2022-08-19T13:23:05;12.65;;;7.90;;
5898;SDS011;2975;50.956;6.962;2022-08-19T13:25:32;11.02;;;8.23;;
5898;SDS011;2975;50.956;6.962;2022-08-19T13:27:58;11.40;;;7.65;;
5898;SDS011;2975;50.956;6.962;2022-08-19T13:30:24;8.73;;;7.10;;
5898;SDS011;2975;50.956;6.962;2022-08-19T13:33:09;8.63;;;6.40;;
5898;SDS011;2975;50.956;6.962;2022-08-19T13:35:42;8.27;;;7.20;;
5898;SDS011;2975;50.956;6.962;2022-08-19T13:38:10;9.48;;;7.00;;
5898;SDS011;2975;50.956;6.962;2022-08-19T13:40:37;10.63;;;7.15;;
5898;SDS011;2975;50.956;6.962;2022-08-19T13:43:04;8.90;;;6.63;;
5898;SDS011;2975;50.956;6.962;2022-08-19T13:45:30;6.47;;;5.78;;
5898;SDS011;2975;50.956;6.962;2022-08-19T13:47:59;11.32;;;7.53;;
5898;SDS011;2975;50.956;6.962;2022-08-19T13:50:26;6.38;;;5.00;;
5898;SDS011;2975;50.956;6.962;2022-08-19T13:52:54;7.97;;;4.70;;
5898;SDS011;2975;50.956;6.962;2022-08-19T13:55:21;5.47;;;4.93;;
5898;SDS011;2975;50.956;6.962;2022-08-19T13:57:51;6.40;;;5.15;;
5898;SDS011;2975;50.956;6.962;2022-08-19T14:00:18;9.35;;;5.80;;
5898;SDS011;2975;50.956;6.962;2022-08-19T14:02:46;10.95;;;5.32;;
5898;SDS011;2975;50.956;6.962;2022-08-19T14:05:15;7.20;;;5.30;;
5898;SDS011;2975;50.956;6.962;2022-08-19T14:07:41;10.45;;;6.20;;
5898;SDS011;2975;50.956;6.962;2022-08-19T14:10:08;6.65;;;5.15;;
5898;SDS011;2975;50.956;6.962;2022-08-19T14:12:35;13.07;;;5.78;;
5898;SDS011;2975;50.956;6.962;2022-08-19T14:15:01;13.00;;;5.55;;
5898;SDS011;2975;50.956;6.962;2022-08-19T14:17:28;6.30;;;5.07;;
5898;SDS011;2975;50.956;6.962;2022-08-19T14:19:58;7.65;;;5.32;;
5898;SDS011;2975;50.956;6.962;2022-08-19T14:22:28;9.75;;;5.18;;
5898;SDS011;2975;50.956;6.962;2022-08-19T14:24:56;7.82;;;6.03;;
5898;SDS011;2975;50.956;6.962;2022-08-19T14:27:21;6.63;;;5.05;;
5898;SDS011;2975;50.956;6.962;2022-08-19T14:29:49;9.93;;;6.05;;
5898;SDS011;2975;50.956;6.962;2022-08-19T14:32:15;8.35;;;6.00;;
5898;SDS011;2975;50.956;6.962;2022-08-19T14:34:41;6.88;;;6.00;;
5898;SDS011;2975;50.956;6.962;2022-08-19T14:37:07;9.00;;;5.43;;
5898;SDS011;2975;50.956;6.962;2022-08-19T14:39:34;8.68;;;6.40;;
5898;SDS011;2975;50.956;6.962;2022-08-19T14:42:00;8.30;;;5.13;;
5898;SDS011;2975;50.956;6.962;2022-08-19T14:44:26;6.90;;;3.97;;
5898;SDS011;2975;50.956;6.962;2022-08-19T14:46:52;6.75;;;4.07;;
5898;SDS011;2975;50.956;6.962;2022-08-19T14:49:18;5.97;;;3.60;;
5898;SDS011;2975;50.956;6.962;2022-08-19T14:51:43;5.68;;;3.55;;
5898;SDS011;2975;50.956;6.962;2022-08-19T14:54:11;5.65;;;4.45;;
5898;SDS011;2975;50.956;6.962;2022-08-19T14:56:37;7.53;;;3.70;;
5898;SDS011;2975;50.956;6.962;2022-08-19T14:59:05;6.30;;;4.63;;
5898;SDS011;2975;50.956;6.962;2022-08-19T15:01:31;5.70;;;4.38;;
5898;SDS011;2975;50.956;6.962;2022-08-19T15:03:57;6.38;;;4.38;;
5898;SDS011;2975;50.956;6.962;2022-08-19T15:06:22;11.40;;;3.72;;
5898;SDS011;2975;50.956;6.962;2022-08-19T15:08:49;7.78;;;3.67;;